createdAt,value
2022-11-25T00:01:38.182Z,6.80
2022-11-25T00:05:39.336Z,6.70
2022-11-25T00:09:40.405Z,6.70
2022-11-25T00:13:42.636Z,6.80
2022-11-25T00:17:43.779Z,6.60
2022-11-25T00:21:44.955Z,6.60
2022-11-25T00:25:46.010Z,6.70
2022-11-25T00:29:47.090Z,6.80
2022-11-25T00:33:49.149Z,6.70
2022-11-25T00:37:50.261Z,6.30
2022-11-25T00:42:10.118Z,6.30
2022-11-25T00:46:11.360Z,6.30
2022-11-25T00:50:12.504Z,6.40
2022-11-25T00:54:13.722Z,6.50
2022-11-25T00:58:14.882Z,6.60
2022-11-25T01:02:18.050Z,6.60
2022-11-25T01:06:19.959Z,6.60
2022-11-25T01:10:21.033Z,6.60
2022-11-25T01:14:23.002Z,6.50
2022-11-25T01:18:24.155Z,6.70
2022-11-25T01:22:25.228Z,6.50
2022-11-25T01:26:27.401Z,6.50
2022-11-25T01:30:28.478Z,6.60
2022-11-25T01:34:31.446Z,6.60
2022-11-25T01:38:33.623Z,6.60
2022-11-25T01:42:34.697Z,6.70
2022-11-25T01:47:13.299Z,6.80
2022-11-25T01:51:27.502Z,6.80
2022-11-25T01:55:31.747Z,6.70
2022-11-25T01:59:36.761Z,6.70
2022-11-25T02:03:41.666Z,6.80
2022-11-25T02:07:46.154Z,6.80
2022-11-25T02:11:48.972Z,6.90
2022-11-25T02:15:50.186Z,7.00
2022-11-25T02:20:10.007Z,7.20
2022-11-25T02:24:21.217Z,7.00
2022-11-25T02:28:25.640Z,7.10
2022-11-25T02:32:26.849Z,7.10
2022-11-25T02:36:28.131Z,7.10
2022-11-25T02:40:29.698Z,7.20
2022-11-25T02:44:31.778Z,7.20
2022-11-25T02:49:06.798Z,7.20
2022-11-25T02:52:37.982Z,7.20
2022-11-25T02:56:39.751Z,7.20
2022-11-25T03:00:43.144Z,7.10
2022-11-25T03:04:44.321Z,7.10
2022-11-25T03:08:45.417Z,7.20
2022-11-25T03:12:46.771Z,7.30
2022-11-25T03:16:47.954Z,7.30
2022-11-25T03:20:53.881Z,7.20
2022-11-25T03:24:54.990Z,7.00
2022-11-25T03:28:56.302Z,6.90
2022-11-25T03:32:57.427Z,7.10
2022-11-25T03:36:58.620Z,7.10
2022-11-25T03:40:59.762Z,7.20
2022-11-25T03:45:01.266Z,7.20
2022-11-25T03:49:03.371Z,7.30
2022-11-25T03:53:04.521Z,7.30
2022-11-25T03:57:05.602Z,7.30
2022-11-25T04:01:06.769Z,7.40
2022-11-25T04:05:08.242Z,7.30
2022-11-25T04:09:11.419Z,7.30
2022-11-25T04:13:12.529Z,7.30
2022-11-25T04:17:13.708Z,7.40
2022-11-25T04:21:16.281Z,7.40
2022-11-25T04:25:17.540Z,7.40
2022-11-25T04:29:19.110Z,7.30
2022-11-25T04:33:20.273Z,7.50
2022-11-25T04:37:21.523Z,7.60
2022-11-25T04:41:23.107Z,7.70
2022-11-25T04:45:24.622Z,7.60
2022-11-25T04:49:25.971Z,7.50
2022-11-25T04:53:27.030Z,7.40
2022-11-25T04:57:28.091Z,7.40
2022-11-25T05:01:29.203Z,7.30
2022-11-25T05:05:30.321Z,7.20
2022-11-25T05:09:31.497Z,7.30
2022-11-25T05:13:32.582Z,7.40
2022-11-25T05:17:33.968Z,7.40
2022-11-25T05:21:35.144Z,7.30
2022-11-25T05:25:36.393Z,7.10
2022-11-25T05:29:37.865Z,7.20
2022-11-25T05:33:39.018Z,7.30
2022-11-25T05:37:40.191Z,7.40
2022-11-25T05:41:41.361Z,7.40
2022-11-25T05:45:42.501Z,7.40
2022-11-25T05:49:43.676Z,7.30
2022-11-25T05:53:44.761Z,7.30
2022-11-25T05:57:45.946Z,7.40
2022-11-25T06:01:47.123Z,7.50
2022-11-25T06:05:48.294Z,7.60
2022-11-25T06:09:50.173Z,7.70
2022-11-25T06:13:51.245Z,7.70
2022-11-25T06:17:52.328Z,7.70
2022-11-25T06:21:53.488Z,7.70
2022-11-25T06:25:54.556Z,7.70
2022-11-25T06:29:55.755Z,7.80
2022-11-25T06:33:56.956Z,7.80
2022-11-25T06:37:59.017Z,7.60
2022-11-25T06:42:00.393Z,7.60
2022-11-25T06:46:03.477Z,7.70
2022-11-25T06:50:05.805Z,7.70
2022-11-25T06:54:07.961Z,7.80
2022-11-25T06:58:34.346Z,7.80
2022-11-25T07:02:12.533Z,7.80
2022-11-25T07:06:16.117Z,7.80
2022-11-25T07:10:17.308Z,7.90
2022-11-25T07:14:18.394Z,8.00
2022-11-25T07:18:19.767Z,8.10
2022-11-25T07:22:20.946Z,8.40
2022-11-25T07:26:25.102Z,8.40
2022-11-25T07:31:22.246Z,8.40
2022-11-25T07:34:29.167Z,8.30
2022-11-25T07:38:30.943Z,8.40
2022-11-25T07:42:33.063Z,8.20
2022-11-25T07:46:37.398Z,8.40
2022-11-25T07:50:38.680Z,8.50
2022-11-25T07:54:39.986Z,8.50
2022-11-25T07:58:45.898Z,8.50
2022-11-25T08:02:45.140Z,8.60
2022-11-25T08:06:47.478Z,8.90
2022-11-25T08:10:51.835Z,9.10
2022-11-25T08:14:53.129Z,9.10
2022-11-25T08:18:55.585Z,9.00
2022-11-25T08:22:56.757Z,9.00
2022-11-25T08:26:59.967Z,9.10
2022-11-25T08:31:07.832Z,9.10
2022-11-25T08:35:09.231Z,9.20
2022-11-25T08:39:36.083Z,9.20
2022-11-25T08:43:13.802Z,9.20
2022-11-25T08:47:15.023Z,9.30
2022-11-25T08:51:19.610Z,9.50
2022-11-25T08:55:21.615Z,9.60
2022-11-25T08:59:24.523Z,9.60
2022-11-25T09:03:26.094Z,9.50
2022-11-25T09:07:30.687Z,9.40
2022-11-25T09:11:30.601Z,9.50
2022-11-25T09:15:32.005Z,9.60
2022-11-25T09:19:33.453Z,9.60
2022-11-25T09:23:34.976Z,9.70
2022-11-25T09:27:36.341Z,9.70
2022-11-25T09:31:37.768Z,9.80
2022-11-25T09:35:39.332Z,9.90
2022-11-25T09:39:40.875Z,9.80
2022-11-25T09:44:13.466Z,10.00
2022-11-25T09:48:24.243Z,9.90
2022-11-25T09:52:49.361Z,9.90
2022-11-25T09:56:57.359Z,9.90
2022-11-25T10:01:01.381Z,10.10
2022-11-25T10:05:24.326Z,10.30
2022-11-25T10:09:29.333Z,10.40
2022-11-25T10:13:52.414Z,10.50
2022-11-25T10:17:57.360Z,10.60
2022-11-25T10:22:01.495Z,10.50
2022-11-25T10:26:09.451Z,10.50
2022-11-25T10:30:20.454Z,10.50
2022-11-25T10:34:28.559Z,10.30
2022-11-25T10:38:36.742Z,10.50
2022-11-25T10:42:38.255Z,10.80
2022-11-25T10:47:12.291Z,10.70
2022-11-25T10:51:25.599Z,10.60
2022-11-25T10:55:29.664Z,10.70
2022-11-25T10:59:36.454Z,11.30
2022-11-25T11:03:37.654Z,11.30
2022-11-25T11:07:42.668Z,11.30
2022-11-25T11:11:46.749Z,11.50
2022-11-25T11:15:48.009Z,11.40
2022-11-25T11:20:05.285Z,11.50
2022-11-25T11:24:27.072Z,12.00
2022-11-25T11:28:36.860Z,12.10
2022-11-25T11:32:41.406Z,12.10
2022-11-25T11:37:01.875Z,12.00
2022-11-25T11:41:15.969Z,12.00
2022-11-25T11:45:41.921Z,11.70
2022-11-25T11:49:46.987Z,11.90
2022-11-25T11:54:12.909Z,11.60
2022-11-25T11:58:30.645Z,12.10
2022-11-25T12:02:40.047Z,12.10
2022-11-25T12:06:44.077Z,12.30
2022-11-25T12:10:49.269Z,12.30
2022-11-25T12:14:54.611Z,12.20
2022-11-25T12:19:14.514Z,12.30
2022-11-25T12:23:29.698Z,12.40
2022-11-25T12:27:35.117Z,12.40
2022-11-25T12:31:43.041Z,12.40
2022-11-25T12:35:50.686Z,12.30
2022-11-25T12:39:58.789Z,12.20
2022-11-25T12:44:04.343Z,12.30
2022-11-25T12:48:09.181Z,12.30
2022-11-25T12:52:26.768Z,12.50
2022-11-25T12:56:31.745Z,12.40
2022-11-25T13:00:43.394Z,12.30
2022-11-25T13:04:51.721Z,12.10
2022-11-25T13:08:56.616Z,11.80
2022-11-25T13:13:18.240Z,11.60
2022-11-25T13:17:17.488Z,11.50
2022-11-25T13:21:19.298Z,11.70
2022-11-25T13:25:25.470Z,11.80
2022-11-25T13:29:30.443Z,11.70
2022-11-25T13:33:43.992Z,11.80
2022-11-25T13:37:45.182Z,11.90
2022-11-25T13:41:50.515Z,11.90
2022-11-25T13:45:52.520Z,11.90
2022-11-25T13:49:57.342Z,11.80
2022-11-25T13:54:02.096Z,11.80
2022-11-25T13:58:13.138Z,11.80
2022-11-25T14:02:30.523Z,11.90
2022-11-25T14:06:46.171Z,11.90
2022-11-25T14:10:51.136Z,11.90
2022-11-25T14:15:05.139Z,11.90
2022-11-25T14:19:43.169Z,11.90
2022-11-25T14:23:39.211Z,11.80
2022-11-25T14:27:47.253Z,11.90
2022-11-25T14:31:55.220Z,12.00
2022-11-25T14:36:00.201Z,11.90
2022-11-25T14:40:05.099Z,11.80
2022-11-25T14:44:11.002Z,11.80
2022-11-25T14:48:15.545Z,11.80
2022-11-25T14:52:19.023Z,11.70
2022-11-25T14:56:29.841Z,11.80
2022-11-25T15:00:30.914Z,11.90
2022-11-25T15:04:33.178Z,11.80
2022-11-25T15:08:40.595Z,11.80
2022-11-25T15:12:46.356Z,11.70
2022-11-25T15:16:45.374Z,11.80
2022-11-25T15:20:49.391Z,11.80
2022-11-25T15:24:55.536Z,11.60
2022-11-25T15:28:59.241Z,11.80
2022-11-25T15:33:02.419Z,11.70
2022-11-25T15:37:03.467Z,11.50
2022-11-25T15:41:06.683Z,11.60
2022-11-25T15:45:10.500Z,11.60
2022-11-25T15:49:16.614Z,11.60
2022-11-25T15:53:24.231Z,11.60
2022-11-25T15:57:27.839Z,11.50
2022-11-25T16:01:30.198Z,11.40
2022-11-25T16:05:37.616Z,11.30
2022-11-25T16:09:42.582Z,11.30
2022-11-25T16:13:44.155Z,11.20
2022-11-25T16:17:45.306Z,11.10
2022-11-25T16:21:53.175Z,11.00
2022-11-25T16:26:06.890Z,11.10
2022-11-25T16:30:17.903Z,11.00
2022-11-25T16:34:21.061Z,11.00
2022-11-25T16:38:22.242Z,10.90
2022-11-25T16:42:23.397Z,10.90
2022-11-25T16:46:24.605Z,10.80
2022-11-25T16:50:26.018Z,10.80
2022-11-25T16:54:27.075Z,10.80
2022-11-25T16:58:28.126Z,10.90
2022-11-25T17:02:29.337Z,10.90
2022-11-25T17:06:31.051Z,11.00
2022-11-25T17:10:32.261Z,10.90
2022-11-25T17:14:37.475Z,10.90
2022-11-25T17:18:38.744Z,10.80
2022-11-25T17:22:39.883Z,10.90
2022-11-25T17:26:43.453Z,11.00
2022-11-25T17:30:45.913Z,11.00
2022-11-25T17:34:46.977Z,11.00
2022-11-25T17:38:48.330Z,11.20
2022-11-25T17:42:49.602Z,11.10
2022-11-25T17:46:51.758Z,11.20
2022-11-25T17:50:52.839Z,11.10
2022-11-25T17:54:54.108Z,11.10
2022-11-25T17:58:58.168Z,11.00
2022-11-25T18:02:59.500Z,11.00
2022-11-25T18:07:01.097Z,11.00
2022-11-25T18:11:04.671Z,10.90
2022-11-25T18:15:07.585Z,10.90
2022-11-25T18:19:11.944Z,11.00
2022-11-25T18:23:13.233Z,11.00
2022-11-25T18:27:24.206Z,11.00
2022-11-25T18:31:26.715Z,11.00
2022-11-25T18:35:35.747Z,11.00
2022-11-25T18:39:34.100Z,10.90
2022-11-25T18:43:36.891Z,10.80
2022-11-25T18:47:38.027Z,10.80
2022-11-25T18:51:40.323Z,11.00
2022-11-25T18:55:41.887Z,11.00
2022-11-25T18:59:44.064Z,11.00
2022-11-25T19:03:45.262Z,10.90
2022-11-25T19:07:48.526Z,10.90
2022-11-25T19:11:53.214Z,11.10
2022-11-25T19:15:55.784Z,11.10
2022-11-25T19:19:56.864Z,11.10
2022-11-25T19:23:58.879Z,11.10
2022-11-25T19:28:00.196Z,11.10
2022-11-25T19:32:02.812Z,11.20
2022-11-25T19:36:05.385Z,11.10
2022-11-25T19:40:18.863Z,10.90
2022-11-25T19:44:20.169Z,11.00
2022-11-25T19:48:24.198Z,10.90
2022-11-25T19:52:35.209Z,11.00
2022-11-25T19:56:37.040Z,11.10
2022-11-25T20:00:39.435Z,11.00
2022-11-25T20:04:42.128Z,11.00
2022-11-25T20:08:43.707Z,11.00
2022-11-25T20:12:45.318Z,11.00
2022-11-25T20:16:46.803Z,11.00
2022-11-25T20:21:03.117Z,11.00
2022-11-25T20:25:09.353Z,10.90
2022-11-25T20:29:15.050Z,10.90
2022-11-25T20:33:21.100Z,10.80
2022-11-25T20:37:21.611Z,10.70
2022-11-25T20:41:27.491Z,10.80
2022-11-25T20:45:26.017Z,10.80
2022-11-25T20:49:28.445Z,10.80
2022-11-25T20:53:31.593Z,10.70
2022-11-25T20:57:34.684Z,10.80
2022-11-25T21:01:35.896Z,10.80
2022-11-25T21:05:37.041Z,10.80
2022-11-25T21:09:38.311Z,10.80
2022-11-25T21:13:39.466Z,10.60
2022-11-25T21:17:40.594Z,10.60
2022-11-25T21:21:44.378Z,10.60
2022-11-25T21:25:46.635Z,10.50
2022-11-25T21:29:47.827Z,10.50
2022-11-25T21:33:50.429Z,10.50
2022-11-25T21:37:51.597Z,10.50
2022-11-25T21:41:54.016Z,10.40
2022-11-25T21:46:04.674Z,10.30
2022-11-25T21:50:14.789Z,10.20
2022-11-25T21:54:16.072Z,10.20
2022-11-25T21:58:25.761Z,10.20
2022-11-25T22:02:26.998Z,10.10
2022-11-25T22:06:29.856Z,10.10
2022-11-25T22:10:31.018Z,10.10
2022-11-25T22:14:37.253Z,10.00
2022-11-25T22:18:39.391Z,9.90
2022-11-25T22:22:40.693Z,9.90
2022-11-25T22:26:43.495Z,9.80
2022-11-25T22:30:51.128Z,9.90
2022-11-25T22:34:52.284Z,9.80
2022-11-25T22:38:53.487Z,9.80
2022-11-25T22:42:55.681Z,9.70
2022-11-25T22:46:57.074Z,9.70
2022-11-25T22:50:58.682Z,9.70
2022-11-25T22:55:18.904Z,9.60
2022-11-25T22:59:19.982Z,9.60
2022-11-25T23:03:24.641Z,9.50
2022-11-25T23:07:25.863Z,9.30
2022-11-25T23:11:26.998Z,9.30
2022-11-25T23:15:29.102Z,9.30
2022-11-25T23:19:30.241Z,9.20
2022-11-25T23:23:31.699Z,9.10
2022-11-25T23:27:32.741Z,9.10
2022-11-25T23:31:35.681Z,9.10
2022-11-25T23:35:37.804Z,9.20
2022-11-25T23:39:39.298Z,9.20
2022-11-25T23:43:40.539Z,9.20
2022-11-25T23:47:44.616Z,9.10
2022-11-25T23:51:46.025Z,9.20
2022-11-25T23:55:47.810Z,9.20
2022-11-25T23:59:49.975Z,9.20
